Time;durP1;ratioP1;P1;durP2;ratioP2;P2;SDS_P1;SDS_P2;PMS_P1;PMS_P2;Temp;Humidity;BMP_temperature;BMP_pressure;BME280_temperature;BME280_humidity;BME280_pressure;Samples;Min_cycle;Max_cycle;Signal;HPM_P1;HPM_P2
2022/04/27 00:00:44;;;;;;;;;3.25;2.50;;;;;8.28;77.38;-18700.81;5030100;28;10598;-69
2022/04/27 00:03:11;;;;;;;;;3.00;3.00;;;;;8.26;78.01;-18700.22;5030819;28;11243;-69
2022/04/27 00:05:38;;;;;;;;;3.75;3.25;;;;;8.25;78.10;-18699.78;5034004;28;10557;-69
2022/04/27 00:08:05;;;;;;;;;2.00;2.00;;;;;8.21;78.33;-18698.72;5030215;28;10358;-68
2022/04/27 00:10:31;;;;;;;;;6.00;3.00;;;;;8.21;78.34;-18698.72;5034211;28;10399;-69
2022/04/27 00:12:58;;;;;;;;;4.00;3.00;;;;;8.24;78.45;-18699.63;5033578;28;10633;-69
2022/04/27 00:15:26;;;;;;;;;1.00;0.00;;;;;8.22;78.30;-18699.00;5028891;28;10630;-69
2022/04/27 00:17:53;;;;;;;;;4.50;3.50;;;;;8.24;78.54;-18699.47;5014816;28;11174;-69
2022/04/27 00:20:19;;;;;;;;;2.50;1.50;;;;;8.25;78.44;-18699.78;4997304;28;10749;-68
2022/04/27 00:22:46;;;;;;;;;1.75;1.75;;;;;8.24;78.25;-18699.47;5029741;28;10471;-69
2022/04/27 00:25:12;;;;;;;;;4.50;4.00;;;;;8.23;78.18;-18699.16;5026512;28;10455;-68
2022/04/27 00:27:39;;;;;;;;;1.50;1.50;;;;;8.20;78.45;-18698.41;5032736;28;10552;-69
2022/04/27 00:30:06;;;;;;;;;0.75;0.75;;;;;8.18;78.56;-18697.81;5016596;28;10753;-69
2022/04/27 00:32:33;;;;;;;;;1.75;1.75;;;;;8.11;78.72;-18695.53;5013451;28;10603;-68
2022/04/27 00:35:00;;;;;;;;;5.00;3.50;;;;;8.07;79.02;-18694.47;5030194;28;10550;-69
2022/04/27 00:37:27;;;;;;;;;4.00;4.00;;;;;8.12;79.06;-18696.00;5033055;28;10533;-69
2022/04/27 00:39:53;;;;;;;;;2.00;2.00;;;;;8.09;78.74;-18694.94;5033849;28;10542;-69
2022/04/27 00:42:24;;;;;;;;;3.50;1.50;;;;;8.08;79.03;-18694.63;5002160;28;10351;-69
2022/04/27 00:44:50;;;;;;;;;6.00;3.50;;;;;8.05;78.70;-18693.88;4996363;28;10549;-69
2022/04/27 00:47:18;;;;;;;;;4.50;4.00;;;;;8.02;78.81;-18692.97;5014944;28;10716;-69
2022/04/27 00:49:50;;;;;;;;;5.25;5.25;;;;;8.03;79.10;-18693.28;5015174;28;11349;-69
2022/04/27 00:52:18;;;;;;;;;2.75;1.50;;;;;8.05;78.96;-18693.88;5011578;28;10818;-70
2022/04/27 00:54:52;;;;;;;;;2.50;2.50;;;;;8.03;79.10;-18693.28;5033324;28;10586;-70
2022/04/27 00:57:22;;;;;;;;;5.50;4.75;;;;;8.02;78.97;-18692.97;5017588;28;10696;-70
2022/04/27 00:59:49;;;;;;;;;1.50;1.50;;;;;8.04;78.79;-18693.56;5013779;28;10693;-70
2022/04/27 01:02:16;;;;;;;;;2.25;2.25;;;;;8.02;78.32;-18692.97;5021724;28;10543;-70
2022/04/27 01:04:44;;;;;;;;;2.00;2.00;;;;;8.05;78.54;-18693.72;5033322;28;10599;-70
2022/04/27 01:07:14;;;;;;;;;1.00;1.00;;;;;8.08;78.71;-18694.78;5015128;28;10699;-70
2022/04/27 01:09:41;;;;;;;;;3.00;3.00;;;;;8.02;78.79;-18693.13;5031920;28;10592;-70
2022/04/27 01:12:08;;;;;;;;;1.00;1.00;;;;;8.02;78.75;-18692.97;5014853;28;10604;-70
2022/04/27 01:14:44;;;;;;;;;1.00;1.00;;;;;7.97;78.97;-18691.47;5015052;28;10679;-69
2022/04/27 01:17:11;;;;;;;;;2.00;2.00;;;;;7.98;79.00;-18691.91;5009912;28;10718;-69
2022/04/27 01:19:38;;;;;;;;;3.50;1.00;;;;;7.89;79.26;-18689.03;5032868;28;10875;-70
2022/04/27 01:22:04;;;;;;;;;2.50;2.50;;;;;7.85;79.47;-18687.97;5030298;28;10536;-70
2022/04/27 01:24:36;;;;;;;;;4.50;1.50;;;;;7.84;79.97;-18687.69;4998882;28;10533;-69
2022/04/27 01:27:04;;;;;;;;;3.50;3.50;;;;;7.85;79.87;-18687.97;4995424;28;10707;-69
2022/04/27 01:29:32;;;;;;;;;5.00;1.75;;;;;7.84;79.71;-18687.69;5017150;28;10766;-69
2022/04/27 01:32:01;;;;;;;;;3.50;2.00;;;;;7.83;79.55;-18687.22;5011149;28;10880;-70
2022/04/27 01:34:29;;;;;;;;;1.25;1.25;;;;;7.84;79.59;-18687.69;5026235;28;10686;-69
2022/04/27 01:37:59;;;;;;;;;2.25;1.25;;;;;7.81;79.22;-18686.63;5002000;28;10545;-69
2022/04/27 01:39:43;;;;;;;;;3.50;1.00;;;;;7.81;79.72;-18686.63;4997890;28;10762;-69
2022/04/27 01:42:09;;;;;;;;;2.75;2.75;;;;;7.75;79.62;-18684.97;5013380;28;10641;-69
2022/04/27 01:44:37;;;;;;;;;4.00;4.00;;;;;7.74;79.62;-18684.50;4995138;28;10706;-69
2022/04/27 01:47:04;;;;;;;;;5.00;2.75;;;;;7.76;79.38;-18685.13;5004477;28;11585;-69
2022/04/27 01:49:30;;;;;;;;;3.00;3.00;;;;;7.74;79.48;-18684.66;5012765;28;10791;-69
2022/04/27 01:54:42;;;;;;;;;3.75;2.00;;;;;7.71;79.53;-18683.91;4999481;28;11439;-69
2022/04/27 01:57:12;;;;;;;;;3.25;3.00;;;;;7.70;79.62;-18683.44;4996424;28;10911;-68
2022/04/27 01:59:41;;;;;;;;;6.25;6.25;;;;;7.64;79.66;-18681.78;5030630;28;10860;-68
2022/04/27 02:02:10;;;;;;;;;2.00;2.00;;;;;7.56;79.91;-18679.38;5014333;28;10931;-69
2022/04/27 02:04:42;;;;;;;;;2.00;2.00;;;;;7.56;80.16;-18679.22;5015422;28;10784;-69
2022/04/27 02:07:11;;;;;;;;;2.00;2.00;;;;;7.51;80.07;-18677.72;5018095;28;10844;-69
2022/04/27 02:09:38;;;;;;;;;3.00;1.50;;;;;7.50;80.71;-18677.41;5012586;28;10787;-69
2022/04/27 02:12:05;;;;;;;;;1.50;1.50;;;;;7.48;80.70;-18676.97;5016279;28;10587;-68
2022/04/27 02:14:35;;;;;;;;;1.00;1.00;;;;;7.51;80.16;-18677.88;5006770;28;10700;-70
2022/04/27 02:17:05;;;;;;;;;2.00;2.00;;;;;7.47;79.72;-18676.66;5013559;28;11475;-68
2022/04/27 02:19:32;;;;;;;;;3.00;3.00;;;;;7.45;80.21;-18676.06;5027344;28;10745;-70
2022/04/27 02:21:58;;;;;;;;;4.00;2.00;;;;;7.43;80.63;-18675.28;5031614;28;11395;-69
2022/04/27 02:24:26;;;;;;;;;2.00;1.00;;;;;7.43;80.69;-18675.28;5031949;28;10848;-69
2022/04/27 02:26:54;;;;;;;;;1.50;1.50;;;;;7.46;80.63;-18676.34;5022799;28;10931;-69
2022/04/27 02:29:27;;;;;;;;;3.00;3.00;;;;;7.50;80.63;-18677.41;5006733;28;10835;-68
2022/04/27 02:32:01;;;;;;;;;4.00;4.00;;;;;7.54;80.28;-18678.63;5014192;28;10858;-68
2022/04/27 02:34:28;;;;;;;;;0.75;0.75;;;;;7.57;80.37;-18679.53;5026088;28;10938;-67
2022/04/27 02:36:55;;;;;;;;;2.00;1.75;;;;;7.64;80.38;-18681.63;5012988;28;10761;-68
2022/04/27 02:39:21;;;;;;;;;3.50;3.50;;;;;7.64;80.44;-18681.63;5011366;28;11537;-69
2022/04/27 02:41:48;;;;;;;;;3.50;1.25;;;;;7.70;80.50;-18683.44;5016911;28;10860;-69
2022/04/27 02:44:14;;;;;;;;;2.00;2.00;;;;;7.75;80.48;-18684.81;4994312;28;10738;-67
2022/04/27 02:46:41;;;;;;;;;1.50;1.00;;;;;7.77;80.47;-18685.56;5011689;28;10843;-68
2022/04/27 02:51:53;;;;;;;;;2.00;1.00;;;;;7.86;80.53;-18688.13;5020039;28;10669;-69
2022/04/27 02:54:42;;;;;;;;;0.75;0.00;;;;;7.91;80.08;-18689.66;5026716;28;10664;-69
2022/04/27 02:57:09;;;;;;;;;0.00;0.00;;;;;7.91;80.11;-18689.66;5013071;28;10684;-68
2022/04/27 02:59:36;;;;;;;;;1.00;1.00;;;;;7.92;80.25;-18690.09;5002092;28;10563;-69
2022/04/27 03:02:04;;;;;;;;;3.00;3.00;;;;;7.96;80.10;-18691.31;4996018;28;10676;-67
2022/04/27 03:04:31;;;;;;;;;2.00;1.00;;;;;7.96;79.85;-18691.31;5015125;28;10822;-68
2022/04/27 03:06:58;;;;;;;;;1.25;1.25;;;;;7.98;79.61;-18691.91;5013618;28;10643;-68
2022/04/27 03:09:25;;;;;;;;;1.00;1.00;;;;;7.98;79.76;-18691.91;5028818;28;10687;-67
2022/04/27 03:11:52;;;;;;;;;1.50;1.00;;;;;8.01;79.95;-18692.81;5031588;28;10632;-68
2022/04/27 03:14:33;;;;;;;;;2.00;1.00;;;;;8.01;79.48;-18692.81;5031697;28;10514;-68
2022/04/27 03:17:00;;;;;;;;;2.00;2.00;;;;;8.00;79.91;-18692.38;5010418;28;12767;-68
2022/04/27 03:19:27;;;;;;;;;3.50;2.25;;;;;7.99;79.58;-18692.22;4995754;28;10732;-68
2022/04/27 03:21:54;;;;;;;;;1.25;1.25;;;;;7.98;79.61;-18691.91;5012569;28;10695;-68
2022/04/27 03:24:21;;;;;;;;;1.00;1.00;;;;;7.99;79.96;-18692.06;5011407;28;11404;-68
2022/04/27 03:26:49;;;;;;;;;1.00;1.00;;;;;7.98;80.07;-18691.75;5015024;28;10651;-68
2022/04/27 03:29:19;;;;;;;;;2.00;1.00;;;;;7.97;80.02;-18691.63;4989497;28;11332;-68
2022/04/27 03:31:52;;;;;;;;;1.00;1.00;;;;;7.97;79.99;-18691.47;5012085;28;10688;-68
2022/04/27 03:34:19;;;;;;;;;1.25;1.25;;;;;7.99;79.93;-18692.06;4996200;28;10633;-68
2022/04/27 03:36:46;;;;;;;;;2.00;0.25;;;;;7.94;80.32;-18690.56;5000392;28;11344;-68
2022/04/27 03:39:14;;;;;;;;;2.00;0.50;;;;;7.90;80.21;-18689.34;5008989;28;10462;-68
2022/04/27 03:42:04;;;;;;;;;2.00;2.00;;;;;7.88;81.01;-18688.75;5015607;28;10618;-68
2022/04/27 03:44:32;;;;;;;;;1.75;1.75;;;;;7.87;81.09;-18688.59;5016043;28;10834;-68
2022/04/27 03:47:01;;;;;;;;;2.00;2.00;;;;;7.88;80.90;-18688.88;4988346;28;10759;-68
2022/04/27 03:49:30;;;;;;;;;1.50;1.25;;;;;7.93;80.74;-18690.41;5020043;28;10752;-68
2022/04/27 03:51:58;;;;;;;;;2.50;2.50;;;;;7.91;80.52;-18689.66;5015967;28;11431;-68
2022/04/27 03:54:25;;;;;;;;;1.00;1.00;;;;;7.91;80.53;-18689.66;5016579;28;10684;-67
2022/04/27 03:56:51;;;;;;;;;0.75;0.75;;;;;7.96;80.72;-18691.16;5012587;28;10762;-69
2022/04/27 03:59:18;;;;;;;;;0.75;0.75;;;;;7.94;80.54;-18690.72;5012370;28;10704;-68
2022/04/27 04:01:45;;;;;;;;;1.75;1.75;;;;;7.92;80.98;-18690.09;4999346;28;10693;-68
2022/04/27 04:04:11;;;;;;;;;3.00;1.00;;;;;7.91;80.52;-18689.66;5023935;28;10753;-68
2022/04/27 04:06:39;;;;;;;;;3.75;2.00;;;;;7.91;80.60;-18689.66;5030530;28;10620;-69
2022/04/27 04:09:06;;;;;;;;;1.75;1.75;;;;;7.92;80.62;-18689.94;5013491;28;10822;-70
2022/04/27 04:11:33;;;;;;;;;4.50;2.00;;;;;7.94;80.65;-18690.72;5005768;28;10834;-68
2022/04/27 04:14:13;;;;;;;;;1.00;1.00;;;;;7.96;80.56;-18691.31;5010043;28;10746;-68
2022/04/27 04:16:52;;;;;;;;;2.25;2.25;;;;;7.97;80.52;-18691.63;5007842;28;10647;-68
2022/04/27 04:19:47;;;;;;;;;3.00;0.50;;;;;7.98;80.16;-18691.75;4976561;28;10766;-68
2022/04/27 04:22:18;;;;;;;;;1.00;1.00;;;;;7.97;79.88;-18691.63;5002804;28;10648;-68
2022/04/27 04:30:32;;;;;;;;;0.00;0.00;;;;;8.03;79.77;-18693.28;4994828;28;10709;-68
2022/04/27 04:33:34;;;;;;;;;3.00;3.00;;;;;8.03;79.83;-18693.28;4989119;28;10546;-68
2022/04/27 04:36:02;;;;;;;;;1.00;1.00;;;;;8.06;79.45;-18694.03;4992203;28;11405;-68
2022/04/27 04:38:34;;;;;;;;;1.75;1.00;;;;;8.07;79.40;-18694.31;5015623;28;10522;-72
2022/04/27 04:41:17;;;;;;;;;2.00;0.75;;;;;8.04;79.63;-18693.56;5012035;28;10528;-70
2022/04/27 04:43:47;;;;;;;;;4.00;1.00;;;;;8.07;79.31;-18694.31;5012627;28;10438;-70
2022/04/27 04:46:14;;;;;;;;;0.50;0.50;;;;;8.09;79.06;-18694.94;5007066;28;10616;-71
2022/04/27 04:49:17;;;;;;;;;3.50;1.50;;;;;8.13;79.31;-18696.28;4979639;28;10629;-68
2022/04/27 04:52:22;;;;;;;;;0.75;0.75;;;;;8.13;78.73;-18696.13;4993367;28;10574;-72
2022/04/27 04:55:21;;;;;;;;;1.00;1.00;;;;;8.11;79.03;-18695.53;5018026;28;11262;-71
2022/04/27 04:57:53;;;;;;;;;0.50;0.50;;;;;8.07;78.50;-18694.47;5030291;28;10720;-71
2022/04/27 05:00:39;;;;;;;;;2.00;2.00;;;;;8.12;78.79;-18695.84;5032960;28;10802;-70
2022/04/27 05:03:30;;;;;;;;;1.00;1.00;;;;;8.09;78.25;-18695.09;5005619;28;10700;-70
2022/04/27 05:06:24;;;;;;;;;2.00;2.00;;;;;8.15;78.06;-18696.75;4998642;28;10696;-70
2022/04/27 05:09:00;;;;;;;;;0.25;0.25;;;;;8.13;77.87;-18696.28;4995181;28;10779;-70
2022/04/27 05:11:47;;;;;;;;;1.00;1.00;;;;;8.13;78.26;-18696.13;4994940;28;10697;-69
2022/04/27 05:14:33;;;;;;;;;2.00;2.00;;;;;8.13;77.71;-18696.13;5013500;28;10825;-70
2022/04/27 05:17:17;;;;;;;;;1.75;1.75;;;;;8.31;77.42;-18701.72;5015558;28;10676;-71
2022/04/27 05:20:11;;;;;;;;;1.50;1.50;;;;;8.43;76.02;-18705.22;4996007;28;10603;-71
2022/04/27 05:23:11;;;;;;;;;2.25;1.25;;;;;8.43;76.30;-18705.06;4980348;28;11427;-71
2022/04/27 05:25:56;;;;;;;;;0.00;0.00;;;;;8.66;75.83;-18711.84;5025056;28;10716;-70
2022/04/27 05:31:58;;;;;;;;;2.50;1.00;;;;;8.62;75.39;-18710.78;4987057;28;10710;-70
2022/04/27 05:34:40;;;;;;;;;2.75;0.00;;;;;8.56;75.02;-18709.13;5015472;28;11275;-71
2022/04/27 05:37:33;;;;;;;;;1.50;1.00;;;;;8.61;75.09;-18710.66;5014729;28;10466;-70
2022/04/27 05:40:10;;;;;;;;;2.00;1.00;;;;;8.66;74.61;-18712.00;5000191;28;10522;-69
2022/04/27 05:42:51;;;;;;;;;0.00;0.00;;;;;8.73;74.11;-18713.97;4998707;28;10614;-70
2022/04/27 05:45:56;;;;;;;;;0.00;0.00;;;;;8.80;72.58;-18716.22;4966295;28;10452;-70
2022/04/27 05:48:32;;;;;;;;;0.00;0.00;;;;;8.88;73.06;-18718.66;5006968;28;11232;-70
2022/04/27 05:51:15;;;;;;;;;1.00;1.00;;;;;8.89;73.16;-18718.94;5026114;28;10404;-70
2022/04/27 05:53:42;;;;;;;;;0.25;0.25;;;;;8.93;71.08;-18720.16;4994961;28;10488;-70
2022/04/27 05:56:26;;;;;;;;;0.25;0.25;;;;;9.09;70.31;-18724.84;5031462;28;10290;-71
2022/04/27 05:59:11;;;;;;;;;2.00;1.00;;;;;9.18;70.23;-18727.56;5011899;28;10533;-70
2022/04/27 06:02:10;;;;;;;;;2.00;2.00;;;;;9.34;69.98;-18732.25;5003773;28;10383;-70
2022/04/27 06:04:37;;;;;;;;;1.00;1.00;;;;;9.47;69.00;-18736.16;4995206;28;11126;-69
2022/04/27 06:07:06;;;;;;;;;1.00;0.75;;;;;9.67;68.45;-18741.91;5023689;28;11232;-70
2022/04/27 06:09:32;;;;;;;;;1.00;1.00;;;;;9.79;67.97;-18745.66;5012855;28;10365;-70
2022/04/27 06:12:11;;;;;;;;;2.75;2.25;;;;;10.37;65.04;-18762.72;5013373;28;10392;-71
2022/04/27 06:14:41;;;;;;;;;2.00;2.00;;;;;10.74;63.18;-18773.91;5030438;28;10471;-71
2022/04/27 06:17:24;;;;;;;;;2.00;2.00;;;;;10.45;62.98;-18765.16;5013455;28;10422;-69
2022/04/27 06:19:51;;;;;;;;;2.50;2.50;;;;;10.34;63.24;-18761.81;5014087;28;10868;-70
2022/04/27 06:22:22;;;;;;;;;1.50;0.00;;;;;10.16;63.37;-18756.53;5011652;28;10447;-70
2022/04/27 06:24:49;;;;;;;;;3.75;3.00;;;;;10.13;63.96;-18755.78;5008550;28;10112;-69
2022/04/27 06:27:41;;;;;;;;;2.50;0.00;;;;;10.08;62.96;-18754.28;5027165;28;10165;-71
2022/04/27 06:30:09;;;;;;;;;0.50;0.50;;;;;10.17;62.97;-18757.00;5013624;28;10131;-71
2022/04/27 06:32:38;;;;;;;;;1.00;1.00;;;;;10.25;63.66;-18759.25;5031192;28;10176;-70
2022/04/27 06:35:06;;;;;;;;;1.00;1.00;;;;;10.29;63.37;-18760.31;5013901;28;10319;-71
2022/04/27 06:37:35;;;;;;;;;0.50;0.50;;;;;10.28;61.85;-18760.00;5022679;28;10161;-70
2022/04/27 06:40:02;;;;;;;;;1.00;1.00;;;;;10.11;59.73;-18755.19;5011765;28;10227;-68
2022/04/27 06:42:30;;;;;;;;;0.00;0.00;;;;;10.12;59.84;-18755.47;5013282;28;10208;-70
2022/04/27 06:45:15;;;;;;;;;1.75;1.50;;;;;10.22;59.17;-18758.19;5031796;28;10153;-71
2022/04/27 06:48:00;;;;;;;;;1.50;0.75;;;;;10.27;57.91;-18759.72;5030474;28;10170;-71
2022/04/27 06:50:45;;;;;;;;;1.00;1.00;;;;;10.34;57.94;-18761.81;5030480;28;10097;-71
2022/04/27 06:53:37;;;;;;;;;1.00;0.00;;;;;10.38;57.66;-18763.03;5026415;28;10295;-71
2022/04/27 06:56:23;;;;;;;;;1.75;1.75;;;;;10.37;56.46;-18762.88;5029026;28;10269;-70
2022/04/27 06:59:02;;;;;;;;;1.00;1.00;;;;;10.31;55.70;-18761.06;5013422;28;10861;-70
2022/04/27 07:01:36;;;;;;;;;0.00;0.00;;;;;10.32;56.00;-18761.22;5022081;28;10318;-71
2022/04/27 07:04:09;;;;;;;;;0.75;0.75;;;;;10.29;55.47;-18760.31;5011070;28;10213;-70
2022/04/27 07:06:35;;;;;;;;;2.00;0.25;;;;;10.28;56.14;-18760.16;5023530;28;10860;-69
2022/04/27 07:09:04;;;;;;;;;0.00;0.00;;;;;10.38;56.60;-18763.19;5031034;28;10311;-70
2022/04/27 07:11:30;;;;;;;;;0.50;0.50;;;;;10.46;55.94;-18765.59;5029815;28;10234;-70
2022/04/27 07:14:02;;;;;;;;;1.00;1.00;;;;;10.53;56.33;-18767.56;5031237;28;10080;-74
2022/04/27 07:16:29;;;;;;;;;1.00;1.00;;;;;10.56;55.31;-18768.47;4985365;28;10325;-68
2022/04/27 07:18:56;;;;;;;;;1.25;1.25;;;;;10.44;54.29;-18765.00;5029641;28;10116;-71
2022/04/27 07:21:22;;;;;;;;;1.00;1.00;;;;;10.63;53.85;-18770.41;5027578;28;10299;-71
2022/04/27 07:23:49;;;;;;;;;4.50;2.00;;;;;10.74;54.05;-18773.75;5021773;28;10968;-70
2022/04/27 07:26:15;;;;;;;;;1.00;1.00;;;;;10.77;53.79;-18774.81;5020293;28;10435;-70
2022/04/27 07:28:42;;;;;;;;;2.00;1.00;;;;;10.91;54.13;-18778.88;5012927;28;10221;-70
2022/04/27 07:31:09;;;;;;;;;0.75;0.75;;;;;10.92;54.61;-18779.03;5008730;28;10266;-71
2022/04/27 07:33:41;;;;;;;;;2.50;2.25;;;;;10.90;54.00;-18778.56;5025533;28;10238;-72
2022/04/27 07:36:07;;;;;;;;;0.00;0.00;;;;;10.81;54.31;-18775.84;5030042;28;10177;-70
2022/04/27 07:38:34;;;;;;;;;0.75;0.75;;;;;10.75;54.47;-18774.19;5019837;28;10151;-73
2022/04/27 07:41:00;;;;;;;;;1.75;1.75;;;;;10.66;55.09;-18771.34;4998820;28;10261;-68
2022/04/27 07:43:27;;;;;;;;;1.25;1.25;;;;;10.76;55.43;-18774.50;5031563;28;10228;-70
2022/04/27 07:45:53;;;;;;;;;0.00;0.00;;;;;10.83;56.39;-18776.47;5010692;28;10104;-71
2022/04/27 07:48:20;;;;;;;;;1.25;1.25;;;;;10.90;56.22;-18778.41;5022060;28;10084;-71
2022/04/27 07:50:46;;;;;;;;;1.75;1.75;;;;;10.87;56.47;-18777.50;5028718;28;10216;-70
2022/04/27 07:53:19;;;;;;;;;2.00;2.00;;;;;10.83;56.99;-18776.31;5019908;28;10237;-73
2022/04/27 07:55:56;;;;;;;;;1.25;1.25;;;;;10.85;57.58;-18777.06;5014124;28;10268;-70
2022/04/27 07:58:23;;;;;;;;;1.50;1.50;;;;;11.03;56.86;-18782.34;5030262;28;10232;-71
2022/04/27 08:00:50;;;;;;;;;1.00;1.00;;;;;10.97;55.82;-18780.69;5029049;28;10202;-71
2022/04/27 08:03:16;;;;;;;;;1.75;1.75;;;;;11.00;56.95;-18781.44;5009236;28;10167;-69
2022/04/27 08:05:43;;;;;;;;;1.25;0.00;;;;;10.95;56.29;-18779.94;5010153;28;10238;-69
2022/04/27 08:08:10;;;;;;;;;1.75;1.50;;;;;11.09;56.63;-18784.16;5020737;28;10110;-69
2022/04/27 08:10:37;;;;;;;;;1.00;1.00;;;;;11.20;56.38;-18787.31;5022187;28;10233;-70
2022/04/27 08:13:04;;;;;;;;;2.00;1.25;;;;;11.30;55.76;-18790.34;5010410;28;9958;-70
2022/04/27 08:15:35;;;;;;;;;2.00;2.00;;;;;11.15;55.48;-18785.97;5010579;28;10130;-70
2022/04/27 08:18:09;;;;;;;;;2.00;2.00;;;;;11.16;55.48;-18786.25;5029769;28;10148;-71
2022/04/27 08:23:29;;;;;;;;;1.75;1.75;;;;;11.44;56.97;-18794.41;5002480;28;10657;-72
2022/04/27 08:25:58;;;;;;;;;2.00;1.00;;;;;11.52;57.04;-18796.81;5019271;28;10091;-69
2022/04/27 08:28:24;;;;;;;;;2.00;2.00;;;;;11.71;57.18;-18802.69;5033313;28;10758;-69
2022/04/27 08:30:51;;;;;;;;;2.00;2.00;;;;;11.85;55.92;-18806.63;5033212;28;10612;-70
2022/04/27 08:33:19;;;;;;;;;6.00;3.25;;;;;12.00;56.07;-18811.16;5027104;28;10111;-71
2022/04/27 08:35:47;;;;;;;;;4.25;3.00;;;;;11.81;56.53;-18805.41;5033094;28;9928;-70
2022/04/27 08:38:14;;;;;;;;;4.75;2.00;;;;;11.97;57.18;-18810.41;5033374;28;9956;-69
2022/04/27 08:40:45;;;;;;;;;3.50;3.50;;;;;11.75;56.71;-18803.75;5033133;28;10351;-70
2022/04/27 08:43:13;;;;;;;;;6.00;4.75;;;;;11.70;56.17;-18802.41;5014297;28;10162;-73
2022/04/27 08:45:41;;;;;;;;;4.00;4.00;;;;;11.68;57.92;-18801.66;5018831;28;10055;-71
2022/04/27 08:48:09;;;;;;;;;5.00;5.00;;;;;11.50;58.17;-18796.22;5024215;28;10019;-70
2022/04/27 08:50:37;;;;;;;;;3.50;2.75;;;;;11.57;56.81;-18798.31;5011486;28;10176;-70
2022/04/27 08:53:04;;;;;;;;;5.50;3.75;;;;;11.58;55.18;-18798.63;5033145;28;10117;-68
2022/04/27 08:55:38;;;;;;;;;4.00;4.00;;;;;11.60;55.75;-18799.38;5022764;28;9933;-70
2022/04/27 08:58:12;;;;;;;;;2.00;2.00;;;;;11.69;51.93;-18801.94;5013686;28;10887;-70
2022/04/27 09:01:01;;;;;;;;;1.75;1.75;;;;;11.43;51.23;-18794.09;5011977;28;9943;-71
2022/04/27 09:03:34;;;;;;;;;3.00;3.00;;;;;11.47;52.34;-18795.31;5031863;28;9905;-70
2022/04/27 09:06:03;;;;;;;;;2.00;2.00;;;;;11.38;55.30;-18792.75;5026860;28;10022;-71
2022/04/27 09:08:52;;;;;;;;;2.00;2.00;;;;;11.34;56.53;-18791.69;5029581;28;9810;-70
2022/04/27 09:11:20;;;;;;;;;2.25;1.75;;;;;11.27;56.20;-18789.44;5028859;28;9936;-72
2022/04/27 09:13:58;;;;;;;;;1.50;1.50;;;;;11.20;58.15;-18787.47;5023489;28;9999;-71
2022/04/27 09:22:11;;;;;;;;;3.50;2.25;;;;;10.71;58.62;-18773.00;5030203;28;10085;-70
2022/04/27 09:24:55;;;;;;;;;1.00;1.00;;;;;10.82;58.49;-18776.16;5032530;28;10150;-71
2022/04/27 09:27:23;;;;;;;;;4.00;3.75;;;;;10.75;59.12;-18774.03;5031550;28;10913;-70
2022/04/27 09:30:01;;;;;;;;;2.25;2.00;;;;;10.63;59.56;-18770.41;5032866;28;10237;-70
2022/04/27 09:32:29;;;;;;;;;2.25;2.25;;;;;10.65;60.91;-18771.19;4999912;28;10106;-70
2022/04/27 09:34:58;;;;;;;;;3.00;3.00;;;;;10.73;61.47;-18773.44;5014425;28;10917;-70
2022/04/27 09:37:26;;;;;;;;;2.00;2.00;;;;;10.73;61.06;-18773.44;5030473;28;10181;-70
2022/04/27 09:40:06;;;;;;;;;2.75;2.75;;;;;10.53;61.27;-18767.41;5024794;28;10088;-72
2022/04/27 09:42:34;;;;;;;;;2.00;1.75;;;;;10.61;61.03;-18769.81;5013383;28;10948;-71
2022/04/27 09:45:20;;;;;;;;;1.25;1.00;;;;;10.70;60.58;-18772.53;5013137;28;10152;-71
2022/04/27 09:47:57;;;;;;;;;3.50;2.00;;;;;10.66;60.39;-18771.47;5012432;28;10014;-71
2022/04/27 09:50:24;;;;;;;;;1.75;1.75;;;;;10.76;60.34;-18774.34;4994821;28;10244;-71
2022/04/27 09:52:55;;;;;;;;;3.00;3.00;;;;;10.69;59.57;-18772.38;5030466;28;10292;-72
2022/04/27 09:55:24;;;;;;;;;2.75;2.75;;;;;10.73;59.75;-18773.59;5013558;28;10071;-69
2022/04/27 09:58:01;;;;;;;;;1.00;1.00;;;;;10.73;59.80;-18773.44;5012298;28;10108;-71
2022/04/27 10:00:29;;;;;;;;;2.00;1.75;;;;;10.71;60.04;-18773.00;4998224;28;10091;-69
2022/04/27 10:02:56;;;;;;;;;6.00;2.00;;;;;10.82;60.18;-18776.00;5027624;28;10156;-70
2022/04/27 10:05:23;;;;;;;;;1.00;1.00;;;;;10.82;59.76;-18776.00;5031950;28;10115;-71
2022/04/27 10:07:51;;;;;;;;;5.00;5.00;;;;;10.74;58.99;-18773.75;5031158;28;9937;-69
2022/04/27 10:10:18;;;;;;;;;2.25;2.25;;;;;10.65;59.44;-18771.19;5024135;28;10395;-71
2022/04/27 10:12:46;;;;;;;;;1.00;1.00;;;;;10.64;59.03;-18770.72;5012269;28;10828;-71
2022/04/27 10:15:13;;;;;;;;;4.00;3.75;;;;;10.72;59.31;-18773.28;5012409;28;10164;-72
2022/04/27 10:17:40;;;;;;;;;1.75;1.75;;;;;10.83;59.76;-18776.31;5027174;28;10264;-70
2022/04/27 10:20:26;;;;;;;;;1.00;1.00;;;;;10.72;59.41;-18773.28;5027198;28;10908;-71
2022/04/27 10:22:52;;;;;;;;;2.00;2.00;;;;;11.36;59.46;-18792.28;5026517;28;10078;-72
2022/04/27 10:25:19;;;;;;;;;3.25;3.00;;;;;11.10;58.86;-18784.44;5027707;28;10089;-71
2022/04/27 10:27:45;;;;;;;;;2.00;2.00;;;;;11.03;58.38;-18782.50;5006601;28;10035;-71
2022/04/27 10:30:14;;;;;;;;;1.50;1.50;;;;;10.87;57.69;-18777.50;5031743;28;10014;-71
2022/04/27 10:32:42;;;;;;;;;2.25;2.25;;;;;10.95;57.91;-18779.94;5029557;28;10105;-71
2022/04/27 10:35:12;;;;;;;;;2.00;2.00;;;;;10.95;57.91;-18779.94;5031772;28;10097;-70
2022/04/27 10:37:50;;;;;;;;;1.75;1.75;;;;;11.08;57.72;-18783.84;5009576;28;10018;-69
2022/04/27 10:40:41;;;;;;;;;4.00;3.00;;;;;11.08;57.71;-18783.84;5030089;28;10170;-70
2022/04/27 10:43:07;;;;;;;;;1.25;1.25;;;;;10.87;57.58;-18777.50;5011563;28;10842;-70
2022/04/27 10:45:35;;;;;;;;;1.25;1.25;;;;;10.92;57.11;-18779.19;5011602;28;10005;-70
2022/04/27 10:48:06;;;;;;;;;1.00;1.00;;;;;11.07;57.86;-18783.69;5009645;28;9873;-70
2022/04/27 10:50:34;;;;;;;;;2.00;1.50;;;;;11.18;57.97;-18786.72;5027343;28;10170;-71
2022/04/27 10:53:15;;;;;;;;;2.00;1.00;;;;;11.39;57.75;-18793.03;5012967;28;10025;-71
2022/04/27 10:55:58;;;;;;;;;1.50;1.00;;;;;11.22;57.21;-18788.06;5028850;28;10609;-70
2022/04/27 10:58:33;;;;;;;;;2.00;2.00;;;;;11.37;57.09;-18792.44;5019031;28;9909;-72
2022/04/27 11:01:02;;;;;;;;;1.00;1.00;;;;;11.44;56.17;-18794.56;5024185;28;9967;-70
2022/04/27 11:03:30;;;;;;;;;2.00;2.00;;;;;11.49;56.18;-18795.91;5029251;28;10706;-70
2022/04/27 11:05:59;;;;;;;;;2.00;2.00;;;;;11.35;55.59;-18791.84;5030420;28;10074;-70
2022/04/27 11:08:34;;;;;;;;;2.00;2.00;;;;;11.46;55.69;-18795.16;5012967;28;10100;-72
2022/04/27 11:11:06;;;;;;;;;3.25;2.25;;;;;11.48;54.58;-18795.63;5026500;28;10182;-71
2022/04/27 11:13:35;;;;;;;;;1.00;1.00;;;;;11.57;54.88;-18798.47;5030440;28;10052;-70
2022/04/27 11:16:10;;;;;;;;;4.00;1.75;;;;;11.53;54.37;-18797.28;5027549;28;9848;-72
2022/04/27 11:18:56;;;;;;;;;2.75;1.00;;;;;11.58;54.65;-18798.63;5007594;28;9908;-71
2022/04/27 11:21:29;;;;;;;;;0.75;0.75;;;;;11.81;54.69;-18805.41;5024118;28;9935;-70
2022/04/27 11:24:00;;;;;;;;;2.75;1.50;;;;;11.70;53.80;-18802.41;5012136;28;9849;-72
2022/04/27 11:26:27;;;;;;;;;2.25;2.25;;;;;11.76;53.84;-18803.91;5028383;28;9849;-71
2022/04/27 11:28:55;;;;;;;;;1.00;0.00;;;;;11.85;52.81;-18806.63;5012325;28;9950;-69
2022/04/27 11:31:22;;;;;;;;;4.00;1.00;;;;;11.91;52.66;-18808.44;5010807;28;9874;-69
2022/04/27 11:33:49;;;;;;;;;1.00;1.00;;;;;11.89;50.50;-18807.97;5012773;28;9926;-70
2022/04/27 11:36:29;;;;;;;;;1.50;1.25;;;;;12.13;50.14;-18814.91;5027260;28;9687;-70
2022/04/27 11:38:56;;;;;;;;;3.75;3.00;;;;;11.75;50.98;-18803.75;5027601;28;9890;-71
2022/04/27 11:41:26;;;;;;;;;1.75;1.75;;;;;11.87;51.53;-18807.22;5024051;28;9953;-68
2022/04/27 11:43:55;;;;;;;;;2.00;2.00;;;;;12.06;51.30;-18812.94;5011035;28;9796;-70
2022/04/27 11:46:22;;;;;;;;;1.75;1.75;;;;;11.98;51.92;-18810.69;5008536;28;9860;-70
2022/04/27 11:48:51;;;;;;;;;1.00;1.00;;;;;12.13;50.97;-18814.91;5010110;28;9676;-71
2022/04/27 11:51:18;;;;;;;;;1.50;1.00;;;;;12.22;51.14;-18817.78;5010528;28;9837;-71
2022/04/27 11:53:49;;;;;;;;;2.50;1.75;;;;;12.05;50.96;-18812.50;5010425;28;9759;-72
2022/04/27 11:56:18;;;;;;;;;3.50;2.50;;;;;12.14;51.25;-18815.22;5015158;28;9876;-70
2022/04/27 11:58:46;;;;;;;;;5.00;2.50;;;;;12.19;51.63;-18816.88;5029836;28;9862;-71
2022/04/27 12:01:22;;;;;;;;;1.00;0.75;;;;;12.18;51.00;-18816.44;5011938;28;9692;-70
2022/04/27 12:03:49;;;;;;;;;2.75;2.75;;;;;12.33;51.07;-18820.94;5030173;28;9618;-70
2022/04/27 12:06:18;;;;;;;;;3.00;3.00;;;;;12.26;51.52;-18818.84;5024096;28;9855;-69
2022/04/27 12:08:44;;;;;;;;;1.75;1.75;;;;;12.17;51.26;-18816.13;5010304;28;9886;-69
2022/04/27 12:11:21;;;;;;;;;2.00;2.00;;;;;12.10;51.57;-18814.16;5014289;28;9639;-70
2022/04/27 12:13:48;;;;;;;;;2.00;2.00;;;;;12.17;51.09;-18816.13;5029799;28;9629;-70